sensor_id;sensor_type;location;lat;lon;timestamp;temperature;humidity
6690;DHT22;3382;51.576;8.076;2022-11-24T00:01:29;9.90;99.90
6690;DHT22;3382;51.576;8.076;2022-11-24T00:04:03;9.80;99.90
6690;DHT22;3382;51.576;8.076;2022-11-24T00:06:31;9.90;99.90
6690;DHT22;3382;51.576;8.076;2022-11-24T00:08:57;9.80;99.90
6690;DHT22;3382;51.576;8.076;2022-11-24T00:11:29;9.90;99.90
6690;DHT22;3382;51.576;8.076;2022-11-24T00:13:56;9.90;99.90
6690;DHT22;3382;51.576;8.076;2022-11-24T00:18:53;9.90;99.90
6690;DHT22;3382;51.576;8.076;2022-11-24T00:21:19;10.10;99.90
6690;DHT22;3382;51.576;8.076;2022-11-24T00:23:46;10.00;99.90
6690;DHT22;3382;51.576;8.076;2022-11-24T00:26:17;10.10;99.90
6690;DHT22;3382;51.576;8.076;2022-11-24T00:28:44;10.10;99.90
6690;DHT22;3382;51.576;8.076;2022-11-24T00:31:34;10.10;99.90
6690;DHT22;3382;51.576;8.076;2022-11-24T00:34:02;10.10;99.90
6690;DHT22;3382;51.576;8.076;2022-11-24T00:36:30;10.10;99.90
6690;DHT22;3382;51.576;8.076;2022-11-24T00:38:58;10.20;99.90
6690;DHT22;3382;51.576;8.076;2022-11-24T00:41:25;10.20;99.90
6690;DHT22;3382;51.576;8.076;2022-11-24T00:43:52;10.30;99.90
6690;DHT22;3382;51.576;8.076;2022-11-24T00:46:18;10.30;99.90
6690;DHT22;3382;51.576;8.076;2022-11-24T00:48:44;10.30;99.90
6690;DHT22;3382;51.576;8.076;2022-11-24T00:51:12;10.40;99.90
6690;DHT22;3382;51.576;8.076;2022-11-24T00:53:38;10.40;99.90
6690;DHT22;3382;51.576;8.076;2022-11-24T00:56:05;10.50;99.90
6690;DHT22;3382;51.576;8.076;2022-11-24T00:58:31;10.60;99.90
6690;DHT22;3382;51.576;8.076;2022-11-24T01:01:02;10.70;99.90
6690;DHT22;3382;51.576;8.076;2022-11-24T01:03:29;10.70;99.90
6690;DHT22;3382;51.576;8.076;2022-11-24T01:05:54;10.60;99.90
6690;DHT22;3382;51.576;8.076;2022-11-24T01:08:20;10.70;99.90
6690;DHT22;3382;51.576;8.076;2022-11-24T01:10:45;10.70;99.90
6690;DHT22;3382;51.576;8.076;2022-11-24T01:13:11;10.70;99.90
6690;DHT22;3382;51.576;8.076;2022-11-24T01:15:38;10.70;99.90
6690;DHT22;3382;51.576;8.076;2022-11-24T01:18:04;10.60;99.90
6690;DHT22;3382;51.576;8.076;2022-11-24T01:20:30;10.70;99.90
6690;DHT22;3382;51.576;8.076;2022-11-24T01:22:56;10.60;99.90
6690;DHT22;3382;51.576;8.076;2022-11-24T01:25:22;10.80;99.90
6690;DHT22;3382;51.576;8.076;2022-11-24T01:27:48;10.60;99.90
6690;DHT22;3382;51.576;8.076;2022-11-24T01:30:13;10.60;99.90
6690;DHT22;3382;51.576;8.076;2022-11-24T01:32:39;10.60;99.90
6690;DHT22;3382;51.576;8.076;2022-11-24T01:35:05;10.60;99.90
6690;DHT22;3382;51.576;8.076;2022-11-24T01:37:31;10.60;99.90
6690;DHT22;3382;51.576;8.076;2022-11-24T01:39:57;10.70;99.90
6690;DHT22;3382;51.576;8.076;2022-11-24T01:42:23;10.60;99.90
6690;DHT22;3382;51.576;8.076;2022-11-24T01:45:29;10.50;99.90
6690;DHT22;3382;51.576;8.076;2022-11-24T01:47:55;10.50;99.90
6690;DHT22;3382;51.576;8.076;2022-11-24T01:50:21;10.50;99.90
6690;DHT22;3382;51.576;8.076;2022-11-24T01:52:51;10.40;99.90
6690;DHT22;3382;51.576;8.076;2022-11-24T01:55:21;10.40;99.90
6690;DHT22;3382;51.576;8.076;2022-11-24T01:57:52;10.40;99.90
6690;DHT22;3382;51.576;8.076;2022-11-24T02:00:20;10.40;99.90
6690;DHT22;3382;51.576;8.076;2022-11-24T02:02:46;10.40;99.90
6690;DHT22;3382;51.576;8.076;2022-11-24T02:05:27;10.40;99.90
6690;DHT22;3382;51.576;8.076;2022-11-24T02:07:56;10.40;99.90
6690;DHT22;3382;51.576;8.076;2022-11-24T02:10:24;10.40;99.90
6690;DHT22;3382;51.576;8.076;2022-11-24T02:12:52;10.40;99.90
6690;DHT22;3382;51.576;8.076;2022-11-24T02:15:19;10.40;99.90
6690;DHT22;3382;51.576;8.076;2022-11-24T02:17:45;10.40;99.90
6690;DHT22;3382;51.576;8.076;2022-11-24T02:20:12;10.40;99.90
6690;DHT22;3382;51.576;8.076;2022-11-24T02:25:15;10.40;99.90
6690;DHT22;3382;51.576;8.076;2022-11-24T02:27:47;10.30;99.90
6690;DHT22;3382;51.576;8.076;2022-11-24T02:30:13;10.30;99.90
6690;DHT22;3382;51.576;8.076;2022-11-24T02:32:40;10.30;99.90
6690;DHT22;3382;51.576;8.076;2022-11-24T02:35:07;10.30;99.90
6690;DHT22;3382;51.576;8.076;2022-11-24T02:37:33;10.30;99.90
6690;DHT22;3382;51.576;8.076;2022-11-24T02:39:59;10.20;99.90
6690;DHT22;3382;51.576;8.076;2022-11-24T02:42:26;10.30;99.90
6690;DHT22;3382;51.576;8.076;2022-11-24T02:44:57;10.20;99.90
6690;DHT22;3382;51.576;8.076;2022-11-24T02:47:23;10.30;99.90
6690;DHT22;3382;51.576;8.076;2022-11-24T02:49:48;10.20;99.90
6690;DHT22;3382;51.576;8.076;2022-11-24T02:52:14;10.20;99.90
6690;DHT22;3382;51.576;8.076;2022-11-24T02:54:40;10.20;99.90
6690;DHT22;3382;51.576;8.076;2022-11-24T02:57:06;10.20;99.90
6690;DHT22;3382;51.576;8.076;2022-11-24T02:59:31;10.20;99.90
6690;DHT22;3382;51.576;8.076;2022-11-24T03:01:57;10.20;99.90
6690;DHT22;3382;51.576;8.076;2022-11-24T03:04:23;10.20;99.90
6690;DHT22;3382;51.576;8.076;2022-11-24T03:06:48;10.20;99.90
6690;DHT22;3382;51.576;8.076;2022-11-24T03:09:14;10.20;99.90
6690;DHT22;3382;51.576;8.076;2022-11-24T03:11:40;10.50;99.90
6690;DHT22;3382;51.576;8.076;2022-11-24T03:14:06;10.20;99.90
6690;DHT22;3382;51.576;8.076;2022-11-24T03:16:32;10.20;99.90
6690;DHT22;3382;51.576;8.076;2022-11-24T03:18:58;10.20;99.90
6690;DHT22;3382;51.576;8.076;2022-11-24T03:21:23;10.20;99.90
6690;DHT22;3382;51.576;8.076;2022-11-24T03:23:50;10.30;99.90
6690;DHT22;3382;51.576;8.076;2022-11-24T03:26:17;10.30;99.90
6690;DHT22;3382;51.576;8.076;2022-11-24T03:28:43;10.30;99.90
6690;DHT22;3382;51.576;8.076;2022-11-24T03:31:10;10.30;99.90
6690;DHT22;3382;51.576;8.076;2022-11-24T03:33:36;10.60;99.90
6690;DHT22;3382;51.576;8.076;2022-11-24T03:36:03;10.30;99.90
6690;DHT22;3382;51.576;8.076;2022-11-24T03:38:29;10.40;99.90
6690;DHT22;3382;51.576;8.076;2022-11-24T03:40:54;10.50;99.90
6690;DHT22;3382;51.576;8.076;2022-11-24T03:43:20;10.50;99.90
6690;DHT22;3382;51.576;8.076;2022-11-24T03:45:47;10.50;99.90
6690;DHT22;3382;51.576;8.076;2022-11-24T03:48:14;10.40;99.90
6690;DHT22;3382;51.576;8.076;2022-11-24T03:50:40;10.50;99.90
6690;DHT22;3382;51.576;8.076;2022-11-24T03:53:05;10.60;99.90
6690;DHT22;3382;51.576;8.076;2022-11-24T03:55:31;10.50;99.90
6690;DHT22;3382;51.576;8.076;2022-11-24T03:57:56;10.50;99.90
6690;DHT22;3382;51.576;8.076;2022-11-24T04:00:22;10.50;99.90
6690;DHT22;3382;51.576;8.076;2022-11-24T04:02:47;10.50;99.90
6690;DHT22;3382;51.576;8.076;2022-11-24T04:05:13;10.60;99.90
6690;DHT22;3382;51.576;8.076;2022-11-24T04:07:39;10.60;99.90
6690;DHT22;3382;51.576;8.076;2022-11-24T04:10:06;10.60;99.90
6690;DHT22;3382;51.576;8.076;2022-11-24T04:12:31;10.60;99.90
6690;DHT22;3382;51.576;8.076;2022-11-24T04:15:15;10.60;99.90
6690;DHT22;3382;51.576;8.076;2022-11-24T04:17:41;10.70;99.90
6690;DHT22;3382;51.576;8.076;2022-11-24T04:20:08;10.70;99.90
6690;DHT22;3382;51.576;8.076;2022-11-24T04:22:34;10.70;99.90
6690;DHT22;3382;51.576;8.076;2022-11-24T04:25:00;10.70;99.90
6690;DHT22;3382;51.576;8.076;2022-11-24T04:27:26;10.70;99.90
6690;DHT22;3382;51.576;8.076;2022-11-24T04:29:52;10.70;99.90
6690;DHT22;3382;51.576;8.076;2022-11-24T04:32:17;10.80;99.90
6690;DHT22;3382;51.576;8.076;2022-11-24T04:34:43;10.80;99.90
6690;DHT22;3382;51.576;8.076;2022-11-24T04:37:09;10.80;99.90
6690;DHT22;3382;51.576;8.076;2022-11-24T04:39:34;10.80;99.90
6690;DHT22;3382;51.576;8.076;2022-11-24T04:42:00;10.80;99.90
6690;DHT22;3382;51.576;8.076;2022-11-24T04:44:26;10.80;99.90
6690;DHT22;3382;51.576;8.076;2022-11-24T04:46:51;10.80;99.90
6690;DHT22;3382;51.576;8.076;2022-11-24T04:49:17;10.80;99.90
6690;DHT22;3382;51.576;8.076;2022-11-24T04:51:43;10.80;99.90
6690;DHT22;3382;51.576;8.076;2022-11-24T04:54:11;10.80;99.90
6690;DHT22;3382;51.576;8.076;2022-11-24T04:56:38;10.80;99.90
6690;DHT22;3382;51.576;8.076;2022-11-24T04:59:03;10.80;99.90
6690;DHT22;3382;51.576;8.076;2022-11-24T05:01:30;10.80;99.90
6690;DHT22;3382;51.576;8.076;2022-11-24T05:03:56;10.80;99.90
6690;DHT22;3382;51.576;8.076;2022-11-24T05:06:23;10.80;99.90
6690;DHT22;3382;51.576;8.076;2022-11-24T05:08:52;10.80;99.90
6690;DHT22;3382;51.576;8.076;2022-11-24T05:11:18;10.80;99.90
6690;DHT22;3382;51.576;8.076;2022-11-24T05:13:44;10.90;99.90
6690;DHT22;3382;51.576;8.076;2022-11-24T05:16:10;10.90;99.90
6690;DHT22;3382;51.576;8.076;2022-11-24T05:18:36;11.00;99.90
6690;DHT22;3382;51.576;8.076;2022-11-24T05:21:03;11.10;99.90
6690;DHT22;3382;51.576;8.076;2022-11-24T05:23:29;11.20;99.90
6690;DHT22;3382;51.576;8.076;2022-11-24T05:26:01;11.40;99.90
6690;DHT22;3382;51.576;8.076;2022-11-24T05:28:27;11.40;99.90
6690;DHT22;3382;51.576;8.076;2022-11-24T05:30:53;11.40;99.90
6690;DHT22;3382;51.576;8.076;2022-11-24T05:33:19;11.30;99.90
6690;DHT22;3382;51.576;8.076;2022-11-24T05:35:48;11.30;99.90
6690;DHT22;3382;51.576;8.076;2022-11-24T05:38:14;11.30;99.90
6690;DHT22;3382;51.576;8.076;2022-11-24T05:40:41;11.30;99.90
6690;DHT22;3382;51.576;8.076;2022-11-24T05:43:14;11.30;99.90
6690;DHT22;3382;51.576;8.076;2022-11-24T05:45:40;11.30;99.90
6690;DHT22;3382;51.576;8.076;2022-11-24T05:48:07;11.30;99.90
6690;DHT22;3382;51.576;8.076;2022-11-24T05:50:34;11.30;99.90
6690;DHT22;3382;51.576;8.076;2022-11-24T05:53:05;11.30;99.90
6690;DHT22;3382;51.576;8.076;2022-11-24T05:55:31;11.30;99.90
6690;DHT22;3382;51.576;8.076;2022-11-24T05:57:58;11.20;99.90
6690;DHT22;3382;51.576;8.076;2022-11-24T06:00:24;11.20;99.90
6690;DHT22;3382;51.576;8.076;2022-11-24T06:02:50;11.20;99.90
6690;DHT22;3382;51.576;8.076;2022-11-24T06:05:16;11.30;99.90
6690;DHT22;3382;51.576;8.076;2022-11-24T06:07:42;11.30;99.90
6690;DHT22;3382;51.576;8.076;2022-11-24T06:10:08;11.50;99.90
6690;DHT22;3382;51.576;8.076;2022-11-24T06:12:34;11.60;99.90
6690;DHT22;3382;51.576;8.076;2022-11-24T06:14:59;11.70;99.90
6690;DHT22;3382;51.576;8.076;2022-11-24T06:17:25;11.80;99.90
6690;DHT22;3382;51.576;8.076;2022-11-24T06:19:51;11.80;99.90
6690;DHT22;3382;51.576;8.076;2022-11-24T06:22:16;11.60;99.90
6690;DHT22;3382;51.576;8.076;2022-11-24T06:24:44;11.60;99.90
6690;DHT22;3382;51.576;8.076;2022-11-24T06:27:11;11.40;99.90
6690;DHT22;3382;51.576;8.076;2022-11-24T06:29:37;11.40;99.90
6690;DHT22;3382;51.576;8.076;2022-11-24T06:32:03;11.40;99.90
6690;DHT22;3382;51.576;8.076;2022-11-24T06:34:29;11.30;99.90
6690;DHT22;3382;51.576;8.076;2022-11-24T06:36:55;11.30;99.90
6690;DHT22;3382;51.576;8.076;2022-11-24T06:39:20;11.30;99.90
6690;DHT22;3382;51.576;8.076;2022-11-24T06:41:48;11.30;99.90
6690;DHT22;3382;51.576;8.076;2022-11-24T06:44:14;11.70;99.90
6690;DHT22;3382;51.576;8.076;2022-11-24T06:46:39;12.50;99.90
6690;DHT22;3382;51.576;8.076;2022-11-24T06:49:05;13.00;99.90
6690;DHT22;3382;51.576;8.076;2022-11-24T06:51:31;13.20;99.90
6690;DHT22;3382;51.576;8.076;2022-11-24T06:53:56;12.90;99.90
6690;DHT22;3382;51.576;8.076;2022-11-24T06:56:22;12.50;99.90
6690;DHT22;3382;51.576;8.076;2022-11-24T06:58:50;12.20;99.90
6690;DHT22;3382;51.576;8.076;2022-11-24T07:01:20;11.90;99.90
6690;DHT22;3382;51.576;8.076;2022-11-24T07:03:47;11.80;99.90
6690;DHT22;3382;51.576;8.076;2022-11-24T07:06:13;11.70;99.90
6690;DHT22;3382;51.576;8.076;2022-11-24T07:08:39;11.60;99.90
6690;DHT22;3382;51.576;8.076;2022-11-24T07:11:06;11.60;99.90
6690;DHT22;3382;51.576;8.076;2022-11-24T07:13:33;11.70;99.90
6690;DHT22;3382;51.576;8.076;2022-11-24T07:15:59;12.00;99.90
6690;DHT22;3382;51.576;8.076;2022-11-24T07:18:25;12.00;99.90
6690;DHT22;3382;51.576;8.076;2022-11-24T07:20:51;11.80;99.90
6690;DHT22;3382;51.576;8.076;2022-11-24T07:23:16;11.80;99.90
6690;DHT22;3382;51.576;8.076;2022-11-24T07:25:42;11.90;99.90
6690;DHT22;3382;51.576;8.076;2022-11-24T07:28:07;12.10;99.90
6690;DHT22;3382;51.576;8.076;2022-11-24T07:30:33;11.90;99.90
6690;DHT22;3382;51.576;8.076;2022-11-24T07:33:00;11.80;99.90
6690;DHT22;3382;51.576;8.076;2022-11-24T07:35:27;11.70;99.90
6690;DHT22;3382;51.576;8.076;2022-11-24T07:37:56;11.90;99.90
6690;DHT22;3382;51.576;8.076;2022-11-24T07:40:23;11.80;99.90
6690;DHT22;3382;51.576;8.076;2022-11-24T07:42:50;11.70;99.90
6690;DHT22;3382;51.576;8.076;2022-11-24T07:45:15;11.70;99.90
6690;DHT22;3382;51.576;8.076;2022-11-24T07:47:41;11.70;99.90
6690;DHT22;3382;51.576;8.076;2022-11-24T07:50:08;11.60;99.90
6690;DHT22;3382;51.576;8.076;2022-11-24T07:52:37;11.70;99.90
6690;DHT22;3382;51.576;8.076;2022-11-24T07:55:03;11.70;99.90
6690;DHT22;3382;51.576;8.076;2022-11-24T07:57:30;11.70;99.90
6690;DHT22;3382;51.576;8.076;2022-11-24T07:59:55;11.70;99.90
6690;DHT22;3382;51.576;8.076;2022-11-24T08:02:21;11.80;99.90
6690;DHT22;3382;51.576;8.076;2022-11-24T08:04:47;12.00;99.90
6690;DHT22;3382;51.576;8.076;2022-11-24T08:07:12;12.20;99.90
6690;DHT22;3382;51.576;8.076;2022-11-24T08:09:38;12.50;99.90
6690;DHT22;3382;51.576;8.076;2022-11-24T08:12:04;12.90;99.90
6690;DHT22;3382;51.576;8.076;2022-11-24T08:14:29;13.00;99.90
6690;DHT22;3382;51.576;8.076;2022-11-24T08:16:56;13.20;99.90
6690;DHT22;3382;51.576;8.076;2022-11-24T08:19:22;13.50;99.90
6690;DHT22;3382;51.576;8.076;2022-11-24T08:21:48;13.70;99.90
6690;DHT22;3382;51.576;8.076;2022-11-24T08:24:13;13.90;99.90
6690;DHT22;3382;51.576;8.076;2022-11-24T08:26:40;14.10;99.90
6690;DHT22;3382;51.576;8.076;2022-11-24T08:29:06;14.20;99.90
6690;DHT22;3382;51.576;8.076;2022-11-24T08:31:32;14.10;99.90
6690;DHT22;3382;51.576;8.076;2022-11-24T08:34:00;14.20;99.90
6690;DHT22;3382;51.576;8.076;2022-11-24T08:36:26;14.10;99.90
6690;DHT22;3382;51.576;8.076;2022-11-24T08:38:56;14.20;99.90
6690;DHT22;3382;51.576;8.076;2022-11-24T08:41:22;14.40;99.90
6690;DHT22;3382;51.576;8.076;2022-11-24T08:43:48;15.20;99.90
6690;DHT22;3382;51.576;8.076;2022-11-24T08:46:16;15.30;99.90
6690;DHT22;3382;51.576;8.076;2022-11-24T08:48:43;15.70;99.90
6690;DHT22;3382;51.576;8.076;2022-11-24T08:51:11;16.00;99.90
6690;DHT22;3382;51.576;8.076;2022-11-24T08:53:38;15.70;99.90
6690;DHT22;3382;51.576;8.076;2022-11-24T08:56:04;15.60;99.90
6690;DHT22;3382;51.576;8.076;2022-11-24T08:58:30;15.60;99.90
6690;DHT22;3382;51.576;8.076;2022-11-24T09:01:06;15.90;99.90
6690;DHT22;3382;51.576;8.076;2022-11-24T09:03:32;16.10;99.90
6690;DHT22;3382;51.576;8.076;2022-11-24T09:05:59;15.90;99.90
6690;DHT22;3382;51.576;8.076;2022-11-24T09:08:24;16.10;99.90
6690;DHT22;3382;51.576;8.076;2022-11-24T09:10:50;16.30;99.90
6690;DHT22;3382;51.576;8.076;2022-11-24T09:13:16;16.30;99.90
6690;DHT22;3382;51.576;8.076;2022-11-24T09:15:41;16.40;99.90
6690;DHT22;3382;51.576;8.076;2022-11-24T09:18:07;16.80;99.90
6690;DHT22;3382;51.576;8.076;2022-11-24T09:20:32;17.10;99.90
6690;DHT22;3382;51.576;8.076;2022-11-24T09:22:58;17.50;99.90
6690;DHT22;3382;51.576;8.076;2022-11-24T09:25:23;17.80;99.90
6690;DHT22;3382;51.576;8.076;2022-11-24T09:27:49;18.00;99.90
6690;DHT22;3382;51.576;8.076;2022-11-24T09:30:15;18.50;99.90
6690;DHT22;3382;51.576;8.076;2022-11-24T09:32:41;18.70;99.90
6690;DHT22;3382;51.576;8.076;2022-11-24T09:35:07;18.90;99.90
6690;DHT22;3382;51.576;8.076;2022-11-24T09:37:33;19.20;99.90
6690;DHT22;3382;51.576;8.076;2022-11-24T09:39:59;19.30;99.90
6690;DHT22;3382;51.576;8.076;2022-11-24T09:42:28;19.40;99.90
6690;DHT22;3382;51.576;8.076;2022-11-24T09:45:25;19.60;99.90
6690;DHT22;3382;51.576;8.076;2022-11-24T09:50:31;20.00;99.90
6690;DHT22;3382;51.576;8.076;2022-11-24T09:53:26;20.00;99.90
6690;DHT22;3382;51.576;8.076;2022-11-24T09:56:27;20.20;99.90
6690;DHT22;3382;51.576;8.076;2022-11-24T09:59:14;19.80;99.90
6690;DHT22;3382;51.576;8.076;2022-11-24T10:01:44;19.90;99.90
6690;DHT22;3382;51.576;8.076;2022-11-24T10:04:20;19.90;99.90
6690;DHT22;3382;51.576;8.076;2022-11-24T10:07:02;20.00;99.90
6690;DHT22;3382;51.576;8.076;2022-11-24T10:09:38;20.20;99.90
6690;DHT22;3382;51.576;8.076;2022-11-24T10:26:36;19.70;99.90
6690;DHT22;3382;51.576;8.076;2022-11-24T10:29:19;19.90;99.90
6690;DHT22;3382;51.576;8.076;2022-11-24T10:31:46;19.90;99.90
6690;DHT22;3382;51.576;8.076;2022-11-24T10:34:28;19.90;99.90
6690;DHT22;3382;51.576;8.076;2022-11-24T10:42:19;19.80;99.90
6690;DHT22;3382;51.576;8.076;2022-11-24T10:45:01;19.80;99.90
6690;DHT22;3382;51.576;8.076;2022-11-24T10:47:28;19.70;99.90
6690;DHT22;3382;51.576;8.076;2022-11-24T10:49:59;19.50;99.90
6690;DHT22;3382;51.576;8.076;2022-11-24T10:52:28;19.70;99.90
6690;DHT22;3382;51.576;8.076;2022-11-24T10:54:58;19.50;99.90
6690;DHT22;3382;51.576;8.076;2022-11-24T10:57:31;19.70;99.90
6690;DHT22;3382;51.576;8.076;2022-11-24T10:59:57;20.00;99.90
6690;DHT22;3382;51.576;8.076;2022-11-24T11:02:35;20.30;99.90
6690;DHT22;3382;51.576;8.076;2022-11-24T11:05:24;20.40;99.90
6690;DHT22;3382;51.576;8.076;2022-11-24T11:08:24;20.60;99.90
6690;DHT22;3382;51.576;8.076;2022-11-24T11:11:17;20.70;99.90
6690;DHT22;3382;51.576;8.076;2022-11-24T11:16:43;20.60;99.90
6690;DHT22;3382;51.576;8.076;2022-11-24T11:19:43;20.10;99.90
6690;DHT22;3382;51.576;8.076;2022-11-24T11:22:17;20.30;99.90
6690;DHT22;3382;51.576;8.076;2022-11-24T11:24:45;20.10;99.90
6690;DHT22;3382;51.576;8.076;2022-11-24T11:27:23;19.90;99.90
6690;DHT22;3382;51.576;8.076;2022-11-24T11:29:49;20.00;99.90
6690;DHT22;3382;51.576;8.076;2022-11-24T11:32:25;20.30;99.90
6690;DHT22;3382;51.576;8.076;2022-11-24T11:34:53;20.60;99.90
6690;DHT22;3382;51.576;8.076;2022-11-24T11:37:21;20.70;99.90
6690;DHT22;3382;51.576;8.076;2022-11-24T11:39:50;20.70;99.90
6690;DHT22;3382;51.576;8.076;2022-11-24T11:45:13;20.60;99.90
6690;DHT22;3382;51.576;8.076;2022-11-24T11:56:24;20.70;99.90
6690;DHT22;3382;51.576;8.076;2022-11-24T12:07:21;21.10;99.90
6690;DHT22;3382;51.576;8.076;2022-11-24T12:10:01;21.10;99.90
6690;DHT22;3382;51.576;8.076;2022-11-24T12:26:53;21.10;99.90
6690;DHT22;3382;51.576;8.076;2022-11-24T12:32:10;21.10;99.90
6690;DHT22;3382;51.576;8.076;2022-11-24T12:37:46;21.10;99.90
6690;DHT22;3382;51.576;8.076;2022-11-24T12:40:30;21.00;99.90
6690;DHT22;3382;51.576;8.076;2022-11-24T12:43:18;21.10;99.90
6690;DHT22;3382;51.576;8.076;2022-11-24T12:46:15;21.20;99.90
6690;DHT22;3382;51.576;8.076;2022-11-24T12:48:56;21.30;99.90
6690;DHT22;3382;51.576;8.076;2022-11-24T12:51:31;21.20;99.90
6690;DHT22;3382;51.576;8.076;2022-11-24T12:53:58;21.20;99.90
6690;DHT22;3382;51.576;8.076;2022-11-24T12:56:41;21.20;99.90
6690;DHT22;3382;51.576;8.076;2022-11-24T12:59:25;21.30;99.90
6690;DHT22;3382;51.576;8.076;2022-11-24T13:05:29;21.20;99.90
6690;DHT22;3382;51.576;8.076;2022-11-24T13:08:01;21.20;99.90
6690;DHT22;3382;51.576;8.076;2022-11-24T13:10:33;21.20;99.90
6690;DHT22;3382;51.576;8.076;2022-11-24T13:13:13;21.10;99.90
6690;DHT22;3382;51.576;8.076;2022-11-24T13:26:45;21.20;99.90
6690;DHT22;3382;51.576;8.076;2022-11-24T13:39:58;21.30;99.90
6690;DHT22;3382;51.576;8.076;2022-11-24T13:42:25;21.30;99.90
6690;DHT22;3382;51.576;8.076;2022-11-24T13:45:01;21.40;99.90
6690;DHT22;3382;51.576;8.076;2022-11-24T13:47:38;21.40;99.90
6690;DHT22;3382;51.576;8.076;2022-11-24T13:50:07;21.40;99.90
6690;DHT22;3382;51.576;8.076;2022-11-24T14:03:14;21.60;99.90
6690;DHT22;3382;51.576;8.076;2022-11-24T14:05:39;21.60;99.90
6690;DHT22;3382;51.576;8.076;2022-11-24T14:08:18;21.60;99.90
6690;DHT22;3382;51.576;8.076;2022-11-24T14:10:45;21.50;99.90
6690;DHT22;3382;51.576;8.076;2022-11-24T14:18:34;21.50;99.90
6690;DHT22;3382;51.576;8.076;2022-11-24T14:24:20;21.50;99.90
6690;DHT22;3382;51.576;8.076;2022-11-24T14:26:48;21.50;99.90
6690;DHT22;3382;51.576;8.076;2022-11-24T14:29:17;21.40;99.90
6690;DHT22;3382;51.576;8.076;2022-11-24T14:31:56;21.30;99.90
6690;DHT22;3382;51.576;8.076;2022-11-24T14:34:24;21.40;99.90
6690;DHT22;3382;51.576;8.076;2022-11-24T14:36:51;21.40;99.90
6690;DHT22;3382;51.576;8.076;2022-11-24T14:39:20;21.30;99.90
6690;DHT22;3382;51.576;8.076;2022-11-24T14:44:30;21.60;99.90
6690;DHT22;3382;51.576;8.076;2022-11-24T14:47:05;21.60;99.90
6690;DHT22;3382;51.576;8.076;2022-11-24T14:49:32;21.70;99.90
6690;DHT22;3382;51.576;8.076;2022-11-24T14:52:03;21.60;99.90
6690;DHT22;3382;51.576;8.076;2022-11-24T14:54:36;21.70;99.90
6690;DHT22;3382;51.576;8.076;2022-11-24T15:00:30;21.80;99.90
6690;DHT22;3382;51.576;8.076;2022-11-24T15:03:08;21.90;99.90
6690;DHT22;3382;51.576;8.076;2022-11-24T15:05:55;21.70;99.90
6690;DHT22;3382;51.576;8.076;2022-11-24T15:08:27;21.50;99.90
6690;DHT22;3382;51.576;8.076;2022-11-24T15:10:57;21.50;99.90
6690;DHT22;3382;51.576;8.076;2022-11-24T15:13:25;21.30;99.90
6690;DHT22;3382;51.576;8.076;2022-11-24T15:15:57;21.10;99.90
6690;DHT22;3382;51.576;8.076;2022-11-24T15:21:01;20.90;99.90
6690;DHT22;3382;51.576;8.076;2022-11-24T15:23:32;20.80;99.90
6690;DHT22;3382;51.576;8.076;2022-11-24T15:28:27;19.70;99.90
6690;DHT22;3382;51.576;8.076;2022-11-24T15:30:58;18.60;99.90
6690;DHT22;3382;51.576;8.076;2022-11-24T15:33:23;17.90;99.90
6690;DHT22;3382;51.576;8.076;2022-11-24T15:35:49;17.60;99.90
6690;DHT22;3382;51.576;8.076;2022-11-24T15:38:15;17.30;99.90
6690;DHT22;3382;51.576;8.076;2022-11-24T15:40:43;17.10;99.90
6690;DHT22;3382;51.576;8.076;2022-11-24T15:43:34;16.70;99.90
6690;DHT22;3382;51.576;8.076;2022-11-24T15:46:01;16.30;99.90
6690;DHT22;3382;51.576;8.076;2022-11-24T15:48:28;15.90;99.90
6690;DHT22;3382;51.576;8.076;2022-11-24T15:50:55;15.50;99.90
6690;DHT22;3382;51.576;8.076;2022-11-24T15:53:33;15.20;99.90
6690;DHT22;3382;51.576;8.076;2022-11-24T15:56:00;14.90;99.90
6690;DHT22;3382;51.576;8.076;2022-11-24T15:58:26;14.70;99.90
6690;DHT22;3382;51.576;8.076;2022-11-24T16:00:52;14.60;99.90
6690;DHT22;3382;51.576;8.076;2022-11-24T16:03:18;14.40;99.90
6690;DHT22;3382;51.576;8.076;2022-11-24T16:05:44;14.10;99.90
6690;DHT22;3382;51.576;8.076;2022-11-24T16:08:14;13.70;99.90
6690;DHT22;3382;51.576;8.076;2022-11-24T16:10:40;13.40;99.90
6690;DHT22;3382;51.576;8.076;2022-11-24T16:13:07;13.20;99.90
6690;DHT22;3382;51.576;8.076;2022-11-24T16:15:32;13.00;99.90
6690;DHT22;3382;51.576;8.076;2022-11-24T16:17:58;12.80;99.90
6690;DHT22;3382;51.576;8.076;2022-11-24T16:20:23;12.60;99.90
6690;DHT22;3382;51.576;8.076;2022-11-24T16:22:49;12.40;99.90
6690;DHT22;3382;51.576;8.076;2022-11-24T16:25:15;12.30;99.90
6690;DHT22;3382;51.576;8.076;2022-11-24T16:27:41;12.20;99.90
6690;DHT22;3382;51.576;8.076;2022-11-24T16:30:08;12.00;99.90
6690;DHT22;3382;51.576;8.076;2022-11-24T16:32:35;12.00;99.90
6690;DHT22;3382;51.576;8.076;2022-11-24T16:35:00;11.90;99.90
6690;DHT22;3382;51.576;8.076;2022-11-24T16:37:26;11.80;99.90
6690;DHT22;3382;51.576;8.076;2022-11-24T16:39:51;11.70;99.90
6690;DHT22;3382;51.576;8.076;2022-11-24T16:42:17;11.70;99.90
6690;DHT22;3382;51.576;8.076;2022-11-24T16:44:42;11.70;99.90
6690;DHT22;3382;51.576;8.076;2022-11-24T16:47:08;11.60;99.90
6690;DHT22;3382;51.576;8.076;2022-11-24T16:49:36;11.50;99.90
6690;DHT22;3382;51.576;8.076;2022-11-24T16:52:01;11.30;99.90
6690;DHT22;3382;51.576;8.076;2022-11-24T16:54:27;11.00;99.90
6690;DHT22;3382;51.576;8.076;2022-11-24T16:56:54;10.90;99.90
6690;DHT22;3382;51.576;8.076;2022-11-24T16:59:19;10.90;99.90
6690;DHT22;3382;51.576;8.076;2022-11-24T17:01:45;10.80;99.90
6690;DHT22;3382;51.576;8.076;2022-11-24T17:04:15;10.80;99.90
6690;DHT22;3382;51.576;8.076;2022-11-24T17:06:40;11.30;99.90
6690;DHT22;3382;51.576;8.076;2022-11-24T17:09:06;11.60;99.90
6690;DHT22;3382;51.576;8.076;2022-11-24T17:11:32;11.30;99.90
6690;DHT22;3382;51.576;8.076;2022-11-24T17:13:57;11.10;99.90
6690;DHT22;3382;51.576;8.076;2022-11-24T17:16:24;10.90;99.90
6690;DHT22;3382;51.576;8.076;2022-11-24T17:18:50;10.80;99.90
6690;DHT22;3382;51.576;8.076;2022-11-24T17:21:18;10.70;99.90
6690;DHT22;3382;51.576;8.076;2022-11-24T17:23:44;10.60;99.90
6690;DHT22;3382;51.576;8.076;2022-11-24T17:26:12;10.70;99.90
6690;DHT22;3382;51.576;8.076;2022-11-24T17:28:38;10.50;99.90
6690;DHT22;3382;51.576;8.076;2022-11-24T17:31:08;10.50;99.90
6690;DHT22;3382;51.576;8.076;2022-11-24T17:33:34;10.40;99.90
6690;DHT22;3382;51.576;8.076;2022-11-24T17:36:03;10.40;99.90
6690;DHT22;3382;51.576;8.076;2022-11-24T17:38:29;10.40;99.90
6690;DHT22;3382;51.576;8.076;2022-11-24T17:40:56;10.40;99.90
6690;DHT22;3382;51.576;8.076;2022-11-24T17:43:22;10.30;99.90
6690;DHT22;3382;51.576;8.076;2022-11-24T17:45:55;10.30;99.90
6690;DHT22;3382;51.576;8.076;2022-11-24T17:48:21;10.30;99.90
6690;DHT22;3382;51.576;8.076;2022-11-24T17:50:47;10.30;99.90
6690;DHT22;3382;51.576;8.076;2022-11-24T17:53:13;10.20;99.90
6690;DHT22;3382;51.576;8.076;2022-11-24T17:55:38;10.20;99.90
6690;DHT22;3382;51.576;8.076;2022-11-24T17:58:05;10.20;99.90
6690;DHT22;3382;51.576;8.076;2022-11-24T18:00:30;10.70;99.90
6690;DHT22;3382;51.576;8.076;2022-11-24T18:02:56;10.40;99.90
6690;DHT22;3382;51.576;8.076;2022-11-24T18:05:22;10.40;99.90
6690;DHT22;3382;51.576;8.076;2022-11-24T18:07:48;10.20;99.90
6690;DHT22;3382;51.576;8.076;2022-11-24T18:10:13;10.20;99.90
6690;DHT22;3382;51.576;8.076;2022-11-24T18:12:39;10.20;99.90
6690;DHT22;3382;51.576;8.076;2022-11-24T18:15:05;10.20;99.90
6690;DHT22;3382;51.576;8.076;2022-11-24T18:17:31;10.10;99.90